Time;durP1;ratioP1;P1;durP2;ratioP2;P2;SDS_P1;SDS_P2;PMS_P1;PMS_P2;Temp;Humidity;BMP_temperature;BMP_pressure;BME280_temperature;BME280_humidity;BME280_pressure;Samples;Min_cycle;Max_cycle;Signal;HPM_P1;HPM_P2
2022/10/15 00:01:07;;;;;;;13.98;8.88;;;;;;;;;;5112556;28;20023;-75
2022/10/15 00:03:35;;;;;;;13.85;8.80;;;;;;;;;;5105819;28;20032;-75
2022/10/15 00:06:08;;;;;;;21.55;8.73;;;;;;;;;;5099327;28;20084;-74
2022/10/15 00:08:34;;;;;;;13.23;8.52;;;;;;;;;;5106171;28;20055;-75
2022/10/15 00:11:04;;;;;;;14.10;9.30;;;;;;;;;;5098597;28;20011;-75
2022/10/15 00:13:31;;;;;;;16.88;9.85;;;;;;;;;;5087634;28;20066;-74
2022/10/15 00:15:58;;;;;;;15.63;9.10;;;;;;;;;;5110909;28;20016;-75
2022/10/15 00:18:24;;;;;;;12.60;8.00;;;;;;;;;;5091342;28;20111;-75
2022/10/15 00:20:50;;;;;;;12.90;9.02;;;;;;;;;;5097884;28;20028;-75
2022/10/15 00:23:16;;;;;;;15.50;8.23;;;;;;;;;;5099256;28;20099;-75
2022/10/15 00:25:42;;;;;;;18.42;9.38;;;;;;;;;;5108890;28;20047;-74
2022/10/15 00:28:08;;;;;;;15.35;9.35;;;;;;;;;;5094065;28;20114;-75
2022/10/15 00:30:34;;;;;;;15.35;8.55;;;;;;;;;;5098251;28;20052;-75
2022/10/15 00:33:00;;;;;;;15.75;9.02;;;;;;;;;;5106227;28;20024;-74
2022/10/15 00:35:26;;;;;;;22.75;9.73;;;;;;;;;;5092901;28;20062;-75
2022/10/15 00:37:52;;;;;;;15.32;9.63;;;;;;;;;;5093440;28;20028;-74
2022/10/15 00:40:18;;;;;;;15.45;9.20;;;;;;;;;;5091938;28;20028;-75
2022/10/15 00:42:45;;;;;;;15.57;9.43;;;;;;;;;;5096989;28;20150;-75
2022/10/15 00:45:12;;;;;;;13.65;9.43;;;;;;;;;;5112982;28;20077;-74
2022/10/15 00:47:40;;;;;;;18.58;9.90;;;;;;;;;;5111747;28;20119;-74
2022/10/15 00:50:11;;;;;;;13.60;9.68;;;;;;;;;;5103683;28;20031;-74
2022/10/15 00:52:48;;;;;;;16.13;9.73;;;;;;;;;;5111570;28;20476;-75
2022/10/15 00:55:14;;;;;;;17.63;10.20;;;;;;;;;;5115646;28;20084;-75
2022/10/15 00:57:41;;;;;;;14.48;10.05;;;;;;;;;;5107264;28;20020;-75
2022/10/15 01:00:09;;;;;;;12.52;9.15;;;;;;;;;;5093965;28;20059;-74
2022/10/15 01:02:35;;;;;;;14.07;9.48;;;;;;;;;;5093267;28;20106;-75
2022/10/15 01:05:01;;;;;;;13.75;10.38;;;;;;;;;;5095056;28;20028;-74
2022/10/15 01:07:27;;;;;;;17.55;10.85;;;;;;;;;;5106030;28;20039;-75
2022/10/15 01:09:53;;;;;;;17.80;9.98;;;;;;;;;;5103117;28;20032;-74
2022/10/15 01:12:25;;;;;;;15.02;9.95;;;;;;;;;;5098493;28;20484;-75
2022/10/15 01:14:58;;;;;;;14.93;9.90;;;;;;;;;;5115244;28;20063;-75
2022/10/15 01:17:30;;;;;;;17.60;10.20;;;;;;;;;;5115288;28;20402;-75
2022/10/15 01:20:15;;;;;;;17.02;9.95;;;;;;;;;;5104576;28;20040;-74
2022/10/15 01:22:44;;;;;;;19.13;10.15;;;;;;;;;;5096486;28;20537;-74
2022/10/15 01:25:37;;;;;;;13.57;10.10;;;;;;;;;;5115207;28;20024;-75
2022/10/15 01:28:15;;;;;;;16.60;10.88;;;;;;;;;;5105826;28;20035;-74
2022/10/15 01:30:44;;;;;;;18.38;11.27;;;;;;;;;;5093455;28;20028;-74
2022/10/15 01:33:28;;;;;;;16.33;9.93;;;;;;;;;;5097758;28;20365;-75
2022/10/15 01:36:03;;;;;;;16.27;10.30;;;;;;;;;;5114628;28;20074;-75
2022/10/15 01:38:36;;;;;;;17.42;10.52;;;;;;;;;;5100240;28;20106;-75
2022/10/15 01:41:21;;;;;;;24.98;10.77;;;;;;;;;;5111701;28;20081;-74
2022/10/15 01:43:54;;;;;;;14.52;10.40;;;;;;;;;;5098667;28;20024;-75
2022/10/15 01:46:23;;;;;;;14.57;10.43;;;;;;;;;;5114724;28;20026;-75
2022/10/15 01:48:53;;;;;;;18.08;10.60;;;;;;;;;;5090654;28;20032;-73
2022/10/15 01:51:20;;;;;;;16.88;10.35;;;;;;;;;;5105190;28;20024;-75
2022/10/15 01:53:46;;;;;;;18.42;10.95;;;;;;;;;;5094582;28;20031;-75
2022/10/15 01:56:15;;;;;;;14.68;10.57;;;;;;;;;;5093938;28;20024;-75
2022/10/15 01:58:42;;;;;;;18.92;11.52;;;;;;;;;;5111125;28;20045;-75
2022/10/15 02:01:09;;;;;;;15.75;11.15;;;;;;;;;;5093285;28;20032;-75
2022/10/15 02:03:51;;;;;;;15.80;11.38;;;;;;;;;;5093067;28;20024;-74
2022/10/15 02:06:37;;;;;;;16.95;12.10;;;;;;;;;;5114149;28;20028;-75
2022/10/15 02:09:16;;;;;;;20.85;11.52;;;;;;;;;;5099541;28;20114;-75
2022/10/15 02:12:00;;;;;;;18.60;11.90;;;;;;;;;;5106885;28;20552;-75
2022/10/15 02:14:33;;;;;;;16.83;11.57;;;;;;;;;;5102990;28;20027;-74
2022/10/15 02:17:00;;;;;;;16.15;11.40;;;;;;;;;;5094345;28;20055;-74
2022/10/15 02:19:35;;;;;;;17.23;12.52;;;;;;;;;;5104380;28;20480;-74
2022/10/15 02:22:16;;;;;;;18.25;12.02;;;;;;;;;;5093109;28;20036;-74
2022/10/15 02:24:49;;;;;;;18.50;11.75;;;;;;;;;;5079513;28;20043;-75
2022/10/15 02:27:16;;;;;;;19.58;12.77;;;;;;;;;;5078660;28;20097;-74
2022/10/15 02:29:43;;;;;;;18.90;12.50;;;;;;;;;;5087902;28;20085;-75
2022/10/15 02:32:10;;;;;;;20.00;12.50;;;;;;;;;;5094323;28;20032;-75
2022/10/15 02:34:36;;;;;;;24.38;12.85;;;;;;;;;;5097551;28;20174;-75
2022/10/15 02:37:04;;;;;;;17.13;13.45;;;;;;;;;;5094665;28;20423;-75
2022/10/15 02:39:30;;;;;;;22.10;12.60;;;;;;;;;;5104314;28;20043;-75
2022/10/15 02:41:57;;;;;;;18.35;13.20;;;;;;;;;;5093167;28;20042;-74
2022/10/15 02:44:23;;;;;;;20.73;13.07;;;;;;;;;;5093066;28;20031;-74
2022/10/15 02:46:49;;;;;;;20.77;13.40;;;;;;;;;;5107526;28;20528;-75
2022/10/15 02:49:15;;;;;;;19.70;12.75;;;;;;;;;;5101952;28;20095;-74
2022/10/15 02:51:41;;;;;;;20.85;14.25;;;;;;;;;;5103645;28;20477;-76
2022/10/15 02:54:07;;;;;;;19.00;12.93;;;;;;;;;;5099360;28;20111;-75
2022/10/15 02:56:34;;;;;;;20.48;14.05;;;;;;;;;;5099925;28;20035;-74
2022/10/15 02:59:00;;;;;;;17.83;13.65;;;;;;;;;;5105791;28;20048;-75
2022/10/15 03:01:26;;;;;;;21.42;13.63;;;;;;;;;;5092267;28;20023;-74
2022/10/15 03:03:52;;;;;;;20.52;14.48;;;;;;;;;;5100508;28;20388;-74
2022/10/15 03:06:18;;;;;;;25.05;14.95;;;;;;;;;;5101959;28;20086;-75
2022/10/15 03:08:44;;;;;;;21.13;14.68;;;;;;;;;;5098651;28;20028;-75
2022/10/15 03:11:10;;;;;;;21.02;14.95;;;;;;;;;;5113081;28;20020;-75
2022/10/15 03:13:37;;;;;;;19.63;15.25;;;;;;;;;;5098648;28;20036;-75
2022/10/15 03:16:07;;;;;;;19.75;14.88;;;;;;;;;;5089406;28;20068;-75
2022/10/15 03:18:33;;;;;;;23.33;13.57;;;;;;;;;;5111100;28;20092;-74
2022/10/15 03:21:00;;;;;;;18.73;13.10;;;;;;;;;;5088486;28;20483;-75
2022/10/15 03:23:26;;;;;;;19.70;13.75;;;;;;;;;;5095383;28;20073;-75
2022/10/15 03:25:53;;;;;;;19.40;12.88;;;;;;;;;;5087673;28;20024;-75
2022/10/15 03:28:19;;;;;;;17.38;12.30;;;;;;;;;;5077847;28;20036;-73
2022/10/15 03:30:46;;;;;;;22.48;12.32;;;;;;;;;;5101582;28;20015;-75
2022/10/15 03:33:12;;;;;;;22.00;13.20;;;;;;;;;;5113003;28;20110;-75
2022/10/15 03:35:38;;;;;;;18.10;11.35;;;;;;;;;;5094787;28;20024;-74
2022/10/15 03:38:04;;;;;;;15.75;11.50;;;;;;;;;;5096520;28;20028;-75
2022/10/15 03:40:30;;;;;;;20.35;12.30;;;;;;;;;;5099589;28;20032;-75
2022/10/15 03:42:56;;;;;;;21.27;12.18;;;;;;;;;;5112735;28;20030;-75
2022/10/15 03:45:23;;;;;;;24.83;13.10;;;;;;;;;;5085540;28;20036;-74
2022/10/15 03:47:49;;;;;;;18.40;11.75;;;;;;;;;;5090307;28;20027;-74
2022/10/15 03:50:15;;;;;;;17.00;11.23;;;;;;;;;;5095418;28;20042;-75
2022/10/15 03:52:41;;;;;;;18.88;12.60;;;;;;;;;;5112555;28;20098;-74
2022/10/15 03:55:08;;;;;;;21.65;12.07;;;;;;;;;;5111629;28;20067;-74
2022/10/15 03:57:34;;;;;;;17.20;12.13;;;;;;;;;;5091138;28;20377;-74
2022/10/15 04:00:00;;;;;;;22.10;11.98;;;;;;;;;;5091177;28;20024;-75
2022/10/15 04:02:26;;;;;;;20.77;12.52;;;;;;;;;;5112007;28;20043;-74
2022/10/15 04:04:53;;;;;;;25.38;12.50;;;;;;;;;;5112468;28;20035;-74
2022/10/15 04:07:20;;;;;;;19.55;12.45;;;;;;;;;;5099317;28;20040;-74
2022/10/15 04:09:46;;;;;;;16.45;12.43;;;;;;;;;;5101238;28;20040;-75
2022/10/15 04:12:12;;;;;;;17.77;11.77;;;;;;;;;;5102258;28;20099;-75
2022/10/15 04:14:39;;;;;;;22.80;13.02;;;;;;;;;;5116382;28;20076;-75
2022/10/15 04:17:05;;;;;;;23.95;12.55;;;;;;;;;;5101144;28;20032;-73
2022/10/15 04:19:31;;;;;;;18.58;12.95;;;;;;;;;;5101112;28;20497;-74
2022/10/15 04:21:58;;;;;;;21.88;12.98;;;;;;;;;;5096856;28;20465;-74
2022/10/15 04:24:24;;;;;;;16.77;12.48;;;;;;;;;;5114206;28;20057;-74
2022/10/15 04:26:50;;;;;;;20.77;12.27;;;;;;;;;;5116090;28;20019;-75
2022/10/15 04:29:16;;;;;;;25.40;12.32;;;;;;;;;;5108106;28;20066;-75
2022/10/15 04:31:42;;;;;;;24.75;13.15;;;;;;;;;;5103435;28;20027;-74
2022/10/15 04:34:09;;;;;;;20.35;11.95;;;;;;;;;;5101810;28;20032;-74
2022/10/15 04:36:35;;;;;;;19.38;11.93;;;;;;;;;;5094521;28;20054;-74
2022/10/15 04:39:01;;;;;;;20.55;11.77;;;;;;;;;;5104364;28;20027;-74
2022/10/15 04:41:27;;;;;;;19.00;12.52;;;;;;;;;;5092050;28;20085;-74
2022/10/15 04:43:54;;;;;;;23.42;12.25;;;;;;;;;;5107685;28;20035;-74
2022/10/15 04:46:21;;;;;;;17.38;11.43;;;;;;;;;;5092698;28;20048;-73
2022/10/15 04:48:47;;;;;;;20.70;11.80;;;;;;;;;;5109759;28;20028;-74
2022/10/15 04:51:15;;;;;;;16.90;11.57;;;;;;;;;;5094559;28;20024;-74
2022/10/15 04:53:41;;;;;;;16.55;11.57;;;;;;;;;;5098238;28;20052;-74
2022/10/15 04:56:10;;;;;;;15.02;10.77;;;;;;;;;;5107397;28;20534;-74
2022/10/15 04:58:37;;;;;;;17.20;11.27;;;;;;;;;;5099874;28;20028;-73
2022/10/15 05:01:05;;;;;;;17.40;10.85;;;;;;;;;;5091153;28;20484;-74
2022/10/15 05:03:31;;;;;;;22.83;11.00;;;;;;;;;;5099259;28;20461;-74
2022/10/15 05:06:01;;;;;;;20.75;11.35;;;;;;;;;;5093337;28;20028;-73
2022/10/15 05:08:28;;;;;;;18.02;12.55;;;;;;;;;;5089715;28;20044;-74
2022/10/15 05:10:54;;;;;;;16.35;10.70;;;;;;;;;;5089917;28;20024;-74
2022/10/15 05:13:20;;;;;;;16.58;10.93;;;;;;;;;;5087816;28;20099;-74
2022/10/15 05:15:46;;;;;;;19.15;11.18;;;;;;;;;;5092715;28;20028;-73
2022/10/15 05:18:12;;;;;;;21.55;10.93;;;;;;;;;;5087249;28;20534;-73
2022/10/15 05:20:39;;;;;;;18.73;11.55;;;;;;;;;;5092131;28;20620;-74
2022/10/15 05:23:05;;;;;;;17.15;11.70;;;;;;;;;;5093366;28;20024;-75
2022/10/15 05:25:31;;;;;;;19.30;12.02;;;;;;;;;;5092328;28;20081;-74
2022/10/15 05:27:57;;;;;;;18.05;12.10;;;;;;;;;;5089917;28;20067;-75
2022/10/15 05:30:23;;;;;;;19.80;12.25;;;;;;;;;;5091572;28;20106;-74
2022/10/15 05:32:53;;;;;;;20.55;13.30;;;;;;;;;;5091191;28;20057;-73
2022/10/15 05:35:19;;;;;;;23.92;12.32;;;;;;;;;;5085378;28;20641;-73
2022/10/15 05:37:45;;;;;;;16.50;11.90;;;;;;;;;;5091489;28;20032;-74
2022/10/15 05:40:12;;;;;;;17.13;12.02;;;;;;;;;;5069048;28;20516;-74
2022/10/15 05:42:38;;;;;;;18.25;11.88;;;;;;;;;;5092991;28;20030;-74
2022/10/15 05:45:04;;;;;;;18.50;12.60;;;;;;;;;;5092856;28;20035;-74
2022/10/15 05:47:30;;;;;;;23.80;12.20;;;;;;;;;;5092845;28;20039;-75
2022/10/15 05:49:56;;;;;;;19.77;12.05;;;;;;;;;;5090855;28;20020;-73
2022/10/15 05:52:22;;;;;;;20.83;11.43;;;;;;;;;;5077700;28;20054;-74
2022/10/15 05:54:48;;;;;;;24.55;12.25;;;;;;;;;;5091784;28;20496;-74
2022/10/15 05:57:14;;;;;;;21.50;12.45;;;;;;;;;;5091492;28;20095;-74
2022/10/15 05:59:40;;;;;;;16.55;10.65;;;;;;;;;;5096355;28;20109;-74
2022/10/15 06:02:06;;;;;;;17.73;10.80;;;;;;;;;;5094017;28;20024;-74
2022/10/15 06:04:32;;;;;;;20.98;11.45;;;;;;;;;;5092299;28;20028;-73
2022/10/15 06:06:58;;;;;;;20.75;10.88;;;;;;;;;;5092799;28;20074;-75
2022/10/15 06:09:25;;;;;;;15.80;10.75;;;;;;;;;;5092429;28;20039;-73
2022/10/15 06:11:51;;;;;;;15.90;10.30;;;;;;;;;;5091296;28;20026;-74
2022/10/15 06:14:17;;;;;;;17.98;9.75;;;;;;;;;;5088454;28;20067;-74
2022/10/15 06:16:43;;;;;;;14.82;9.88;;;;;;;;;;5090553;28;20460;-74
2022/10/15 06:19:09;;;;;;;14.38;9.00;;;;;;;;;;5090391;28;20024;-74
2022/10/15 06:21:35;;;;;;;13.98;9.68;;;;;;;;;;5090516;28;20021;-74
2022/10/15 06:24:01;;;;;;;16.55;9.85;;;;;;;;;;5093291;28;20066;-74
2022/10/15 06:26:27;;;;;;;20.25;9.77;;;;;;;;;;5091552;28;20028;-74
2022/10/15 06:28:54;;;;;;;13.02;8.95;;;;;;;;;;5084851;28;20500;-74
2022/10/15 06:31:20;;;;;;;14.85;10.10;;;;;;;;;;5086720;28;21401;-74
2022/10/15 06:33:46;;;;;;;11.95;8.63;;;;;;;;;;5090696;28;20024;-74
2022/10/15 06:36:12;;;;;;;14.75;9.52;;;;;;;;;;5093371;28;20480;-75
2022/10/15 06:38:38;;;;;;;14.60;9.13;;;;;;;;;;5092231;28;20407;-75
2022/10/15 06:41:05;;;;;;;15.07;9.30;;;;;;;;;;5092890;28;20026;-74
2022/10/15 06:43:32;;;;;;;12.25;8.80;;;;;;;;;;5091528;28;20024;-74
2022/10/15 06:45:59;;;;;;;14.20;8.70;;;;;;;;;;5092946;28;20549;-75
2022/10/15 06:48:25;;;;;;;15.88;9.30;;;;;;;;;;5087260;28;20042;-74
2022/10/15 06:50:51;;;;;;;13.00;8.60;;;;;;;;;;5092844;28;20020;-74
2022/10/15 06:53:22;;;;;;;15.05;9.63;;;;;;;;;;5092203;28;20508;-75
2022/10/15 06:55:48;;;;;;;13.00;9.02;;;;;;;;;;5093607;28;20023;-75
2022/10/15 06:58:14;;;;;;;14.48;9.07;;;;;;;;;;5091504;28;20024;-75
2022/10/15 07:00:40;;;;;;;15.70;9.02;;;;;;;;;;5088814;28;20032;-74
2022/10/15 07:03:06;;;;;;;18.23;9.38;;;;;;;;;;5092882;28;20153;-74
2022/10/15 07:05:34;;;;;;;16.95;10.60;;;;;;;;;;5096670;28;20059;-74
2022/10/15 07:08:00;;;;;;;15.02;9.40;;;;;;;;;;5086876;28;20046;-74
2022/10/15 07:10:27;;;;;;;17.13;9.50;;;;;;;;;;5092638;28;20103;-75
2022/10/15 07:12:54;;;;;;;16.40;10.32;;;;;;;;;;5091472;28;20024;-74
2022/10/15 07:15:20;;;;;;;13.75;9.48;;;;;;;;;;5091376;28;20066;-74
2022/10/15 07:17:47;;;;;;;13.07;8.65;;;;;;;;;;5093131;28;20028;-76
2022/10/15 07:20:13;;;;;;;20.77;10.35;;;;;;;;;;5087174;28;20031;-74
2022/10/15 07:22:39;;;;;;;14.00;9.07;;;;;;;;;;5091445;28;20500;-75
2022/10/15 07:25:06;;;;;;;12.05;9.13;;;;;;;;;;5088590;28;20606;-73
2022/10/15 07:27:32;;;;;;;14.23;9.60;;;;;;;;;;5089913;28;20500;-74
2022/10/15 07:29:58;;;;;;;13.20;9.25;;;;;;;;;;5090151;28;20077;-73
2022/10/15 07:32:24;;;;;;;11.50;8.95;;;;;;;;;;5090367;28;20106;-74
2022/10/15 07:34:50;;;;;;;13.48;8.65;;;;;;;;;;5088414;28;20016;-73
2022/10/15 07:37:16;;;;;;;11.85;8.25;;;;;;;;;;5096187;28;20028;-74
2022/10/15 07:39:42;;;;;;;15.57;9.35;;;;;;;;;;5092166;28;20073;-74
2022/10/15 07:42:08;;;;;;;13.20;8.95;;;;;;;;;;5092471;28;20032;-74
2022/10/15 07:44:34;;;;;;;15.70;9.70;;;;;;;;;;5093301;28;20105;-73
2022/10/15 07:47:00;;;;;;;12.52;8.63;;;;;;;;;;5092574;28;20020;-73
2022/10/15 07:49:26;;;;;;;11.70;8.48;;;;;;;;;;5093741;28;20491;-73
2022/10/15 07:51:52;;;;;;;12.52;8.55;;;;;;;;;;5092875;28;20031;-74
2022/10/15 07:54:18;;;;;;;14.50;8.98;;;;;;;;;;5093535;28;20506;-74
2022/10/15 07:56:44;;;;;;;13.95;9.48;;;;;;;;;;5094540;28;20032;-74
2022/10/15 07:59:10;;;;;;;13.00;8.90;;;;;;;;;;5091015;28;20039;-73
2022/10/15 08:01:37;;;;;;;12.85;8.70;;;;;;;;;;5095400;28;20096;-74
2022/10/15 08:04:03;;;;;;;11.90;8.98;;;;;;;;;;5096276;28;20501;-74
2022/10/15 08:06:31;;;;;;;24.83;8.95;;;;;;;;;;5095604;28;20048;-73
2022/10/15 08:08:57;;;;;;;15.77;8.80;;;;;;;;;;5094082;28;20027;-74
2022/10/15 08:11:35;;;;;;;16.90;9.20;;;;;;;;;;5089939;28;20020;-72
2022/10/15 08:14:04;;;;;;;17.55;8.48;;;;;;;;;;5091803;28;21713;-75
2022/10/15 08:16:30;;;;;;;15.40;8.70;;;;;;;;;;5086187;28;20547;-74
2022/10/15 08:18:57;;;;;;;24.42;11.07;;;;;;;;;;5094576;28;20073;-72
2022/10/15 08:21:23;;;;;;;24.02;8.60;;;;;;;;;;5092079;28;20031;-73
2022/10/15 08:23:50;;;;;;;14.60;7.72;;;;;;;;;;5094897;28;20020;-72
2022/10/15 08:26:16;;;;;;;12.05;7.70;;;;;;;;;;5094652;28;20032;-74
2022/10/15 08:28:42;;;;;;;14.32;7.07;;;;;;;;;;5094032;28;20020;-74
2022/10/15 08:31:08;;;;;;;13.50;8.13;;;;;;;;;;5094431;28;20028;-73
2022/10/15 08:33:35;;;;;;;17.80;7.72;;;;;;;;;;5095514;28;20028;-72
2022/10/15 08:36:01;;;;;;;17.20;8.73;;;;;;;;;;5094326;28;20020;-73
2022/10/15 08:38:29;;;;;;;12.80;7.05;;;;;;;;;;5095139;28;20035;-72
2022/10/15 08:40:56;;;;;;;17.40;7.25;;;;;;;;;;5094350;28;20020;-73
2022/10/15 08:43:30;;;;;;;13.30;7.40;;;;;;;;;;5095244;28;20038;-72
2022/10/15 08:45:59;;;;;;;14.45;6.65;;;;;;;;;;5103669;28;20492;-73
2022/10/15 08:48:33;;;;;;;17.60;7.43;;;;;;;;;;5094664;28;20020;-74
2022/10/15 08:51:03;;;;;;;15.13;7.07;;;;;;;;;;5094940;28;20024;-73
2022/10/15 08:53:29;;;;;;;11.68;7.25;;;;;;;;;;5094573;28;20354;-74
2022/10/15 08:55:59;;;;;;;19.27;7.57;;;;;;;;;;5094363;28;20025;-73
2022/10/15 08:58:32;;;;;;;12.80;7.10;;;;;;;;;;5094450;28;20031;-73
2022/10/15 09:00:58;;;;;;;;;;;;;;;;;;5096353;28;20028;-74
2022/10/15 09:03:30;;;;;;;14.73;7.22;;;;;;;;;;5089283;28;19911;-72
2022/10/15 09:06:07;;;;;;;13.82;6.80;;;;;;;;;;5091183;28;20472;-73
2022/10/15 09:08:40;;;;;;;11.57;7.70;;;;;;;;;;5093400;28;20392;-72
2022/10/15 09:11:23;;;;;;;11.60;5.95;;;;;;;;;;5094394;28;20295;-73
2022/10/15 09:13:50;;;;;;;13.47;8.27;;;;;;;;;;5094076;28;20036;-73
2022/10/15 09:16:17;;;;;;;21.20;10.73;;;;;;;;;;5094775;28;20095;-72
2022/10/15 09:18:45;;;;;;;11.82;7.95;;;;;;;;;;5093097;28;20063;-74
2022/10/15 09:21:12;;;;;;;17.83;7.20;;;;;;;;;;5073336;28;20020;-73
2022/10/15 09:23:40;;;;;;;16.13;6.93;;;;;;;;;;5091253;28;20031;-74
2022/10/15 09:26:09;;;;;;;21.20;7.65;;;;;;;;;;5088992;28;20043;-73
2022/10/15 09:28:42;;;;;;;14.60;7.53;;;;;;;;;;5084020;28;20024;-75
2022/10/15 09:31:09;;;;;;;17.73;7.10;;;;;;;;;;5073756;28;20089;-75
2022/10/15 09:33:53;;;;;;;10.27;7.55;;;;;;;;;;5077168;28;20428;-74
2022/10/15 09:36:34;;;;;;;12.38;6.82;;;;;;;;;;5082005;28;20039;-74
2022/10/15 09:39:04;;;;;;;12.93;6.40;;;;;;;;;;5087193;28;20036;-73
2022/10/15 09:41:39;;;;;;;21.02;7.15;;;;;;;;;;5074995;28;20024;-74
2022/10/15 09:44:12;;;;;;;9.75;6.40;;;;;;;;;;5082486;28;20028;-75
2022/10/15 09:46:45;;;;;;;8.55;6.10;;;;;;;;;;5085440;28;20423;-74
2022/10/15 09:49:20;;;;;;;13.38;6.68;;;;;;;;;;5081087;28;20103;-73
2022/10/15 09:52:06;;;;;;;13.57;7.07;;;;;;;;;;5078924;28;20435;-73
2022/10/15 09:54:38;;;;;;;11.70;6.90;;;;;;;;;;5080494;28;20031;-74
2022/10/15 09:57:07;;;;;;;17.02;6.82;;;;;;;;;;5073845;28;20013;-74
2022/10/15 09:59:33;;;;;;;12.13;6.90;;;;;;;;;;5078691;28;20032;-74
2022/10/15 10:02:01;;;;;;;14.48;7.30;;;;;;;;;;5084082;28;20433;-76
2022/10/15 10:04:31;;;;;;;12.30;6.53;;;;;;;;;;5073642;28;20468;-73
2022/10/15 10:06:59;;;;;;;14.07;6.03;;;;;;;;;;5092321;28;20090;-74
2022/10/15 10:09:48;;;;;;;14.85;8.65;;;;;;;;;;5092964;28;20020;-75
2022/10/15 10:12:18;;;;;;;12.75;6.68;;;;;;;;;;5085617;28;20025;-75
2022/10/15 10:15:04;;;;;;;13.70;6.60;;;;;;;;;;5093583;28;20123;-74
2022/10/15 10:17:30;;;;;;;12.75;6.50;;;;;;;;;;5093000;28;20055;-75
2022/10/15 10:20:09;;;;;;;12.48;6.28;;;;;;;;;;5093402;28;20024;-75
2022/10/15 10:22:47;;;;;;;14.07;6.38;;;;;;;;;;5091760;28;20035;-74
2022/10/15 10:25:28;;;;;;;15.07;6.85;;;;;;;;;;5093062;28;20028;-74
2022/10/15 10:27:59;;;;;;;32.92;8.35;;;;;;;;;;5092154;28;20028;-76
2022/10/15 10:30:25;;;;;;;11.82;6.25;;;;;;;;;;5093572;28;20376;-74
2022/10/15 10:32:59;;;;;;;11.20;6.82;;;;;;;;;;5092475;28;20032;-74
2022/10/15 10:35:28;;;;;;;10.75;6.55;;;;;;;;;;5093040;28;20023;-75
2022/10/15 10:37:55;;;;;;;12.70;7.07;;;;;;;;;;5090722;28;20036;-74
2022/10/15 10:40:26;;;;;;;13.43;7.13;;;;;;;;;;5090951;28;20583;-74
2022/10/15 10:43:09;;;;;;;14.43;7.28;;;;;;;;;;5091401;28;20031;-74
2022/10/15 10:45:35;;;;;;;16.77;6.72;;;;;;;;;;5083689;28;20127;-74
2022/10/15 10:48:21;;;;;;;15.23;6.60;;;;;;;;;;5093171;28;20381;-74
2022/10/15 10:50:47;;;;;;;14.75;7.13;;;;;;;;;;5095193;28;20030;-74
2022/10/15 10:53:24;;;;;;;9.73;6.22;;;;;;;;;;5089340;28;20123;-73
2022/10/15 10:55:52;;;;;;;12.50;6.32;;;;;;;;;;5086359;28;20024;-73
2022/10/15 10:58:19;;;;;;;12.95;6.47;;;;;;;;;;5080224;28;20036;-73
2022/10/15 11:00:51;;;;;;;11.60;7.05;;;;;;;;;;5080623;28;20020;-75
2022/10/15 11:03:39;;;;;;;10.60;7.75;;;;;;;;;;5082697;28;20111;-74
2022/10/15 11:06:16;;;;;;;17.05;7.18;;;;;;;;;;5074954;28;20030;-73
2022/10/15 11:08:52;;;;;;;17.17;7.47;;;;;;;;;;5076943;28;20061;-73
2022/10/15 11:11:22;;;;;;;12.75;8.40;;;;;;;;;;5083980;28;20427;-73
2022/10/15 11:13:48;;;;;;;14.20;7.07;;;;;;;;;;5082213;28;20078;-73
2022/10/15 11:16:35;;;;;;;12.68;7.18;;;;;;;;;;5077905;28;20381;-73
2022/10/15 11:19:13;;;;;;;16.58;6.70;;;;;;;;;;5074566;28;20111;-73
2022/10/15 11:21:45;;;;;;;18.17;6.55;;;;;;;;;;5073674;28;20020;-73
2022/10/15 11:24:12;;;;;;;11.63;6.10;;;;;;;;;;5078540;28;20073;-73
2022/10/15 11:26:38;;;;;;;8.55;5.63;;;;;;;;;;5080837;28;20031;-73
2022/10/15 11:29:13;;;;;;;9.90;6.03;;;;;;;;;;5075878;28;20040;-75
2022/10/15 11:31:45;;;;;;;10.55;5.95;;;;;;;;;;5079737;28;20081;-73
2022/10/15 11:34:14;;;;;;;10.93;5.47;;;;;;;;;;5079050;28;20024;-73
2022/10/15 11:36:49;;;;;;;10.15;6.15;;;;;;;;;;5077550;28;20028;-74
2022/10/15 11:39:27;;;;;;;11.52;6.25;;;;;;;;;;5081326;28;20119;-75
2022/10/15 11:41:53;;;;;;;10.55;5.70;;;;;;;;;;5063127;28;20047;-74
2022/10/15 11:44:32;;;;;;;11.90;5.63;;;;;;;;;;5074520;28;20103;-73
2022/10/15 11:47:03;;;;;;;9.55;5.32;;;;;;;;;;5077098;28;20028;-73
2022/10/15 11:49:35;;;;;;;13.70;5.38;;;;;;;;;;5088653;28;20119;-73
2022/10/15 11:52:11;;;;;;;9.00;5.72;;;;;;;;;;5085076;28;20031;-75
2022/10/15 11:54:43;;;;;;;10.18;5.90;;;;;;;;;;5095336;28;20103;-74
2022/10/15 11:57:12;;;;;;;11.45;6.18;;;;;;;;;;5099706;28;20167;-75
2022/10/15 11:59:47;;;;;;;12.32;5.50;;;;;;;;;;5100782;28;20051;-75
2022/10/15 12:02:17;;;;;;;10.48;5.80;;;;;;;;;;5098783;28;20031;-74
2022/10/15 12:05:05;;;;;;;10.30;5.78;;;;;;;;;;5104294;28;20032;-75
2022/10/15 12:07:39;;;;;;;15.82;6.05;;;;;;;;;;5110742;28;20100;-74
2022/10/15 12:10:25;;;;;;;9.43;5.55;;;;;;;;;;5112805;28;20026;-74
2022/10/15 12:13:20;;;;;;;14.68;5.85;;;;;;;;;;5080636;28;20024;-75
2022/10/15 12:16:05;;;;;;;14.10;5.70;;;;;;;;;;5010628;28;20116;-75
2022/10/15 12:18:38;;;;;;;7.05;5.28;;;;;;;;;;5012892;28;20466;-75
2022/10/15 12:21:24;;;;;;;10.15;5.60;;;;;;;;;;5028800;28;20382;-74
2022/10/15 12:23:50;;;;;;;7.72;5.75;;;;;;;;;;5010218;28;20060;-74
2022/10/15 12:26:25;;;;;;;11.13;5.90;;;;;;;;;;5015534;28;20056;-75
2022/10/15 12:28:52;;;;;;;10.75;5.65;;;;;;;;;;5022884;28;20442;-74
2022/10/15 12:31:19;;;;;;;11.32;5.88;;;;;;;;;;5031616;28;20025;-75
2022/10/15 12:33:53;;;;;;;9.63;5.50;;;;;;;;;;5027400;28;20099;-75
2022/10/15 12:36:19;;;;;;;;;;;;;;;;;;5030220;28;20068;-75
2022/10/15 12:39:05;;;;;;;12.05;5.60;;;;;;;;;;5019774;28;20297;-75
2022/10/15 12:41:39;;;;;;;14.30;5.80;;;;;;;;;;5033854;28;20033;-75
2022/10/15 12:44:17;;;;;;;11.07;5.85;;;;;;;;;;5026234;28;20177;-75
2022/10/15 12:46:43;;;;;;;23.27;6.78;;;;;;;;;;5029337;28;20037;-75
2022/10/15 12:49:33;;;;;;;17.40;6.60;;;;;;;;;;5025986;28;20034;-75
2022/10/15 12:52:00;;;;;;;12.40;6.53;;;;;;;;;;4999865;28;20492;-75
2022/10/15 12:54:39;;;;;;;19.30;6.88;;;;;;;;;;5004900;28;20039;-73
2022/10/15 12:57:24;;;;;;;16.05;6.68;;;;;;;;;;5010688;28;20081;-75
2022/10/15 12:59:54;;;;;;;13.57;6.72;;;;;;;;;;5013640;28;20379;-74
2022/10/15 13:02:34;;;;;;;9.43;5.85;;;;;;;;;;5013169;28;20096;-75
2022/10/15 13:05:01;;;;;;;9.88;6.30;;;;;;;;;;5001752;28;20069;-74
2022/10/15 13:07:27;;;;;;;9.98;6.50;;;;;;;;;;4995196;28;20049;-73
2022/10/15 13:09:53;;;;;;;11.85;6.13;;;;;;;;;;5002539;28;20108;-74
2022/10/15 13:12:22;;;;;;;12.18;6.32;;;;;;;;;;4999675;28;20468;-75
2022/10/15 13:14:52;;;;;;;13.65;7.28;;;;;;;;;;5002907;28;20475;-73
2022/10/15 13:17:19;;;;;;;14.15;6.82;;;;;;;;;;4994121;28;20038;-74
2022/10/15 13:19:48;;;;;;;19.30;7.90;;;;;;;;;;5000841;28;20108;-75
2022/10/15 13:22:24;;;;;;;12.88;7.18;;;;;;;;;;5012814;28;20540;-75
2022/10/15 13:24:50;;;;;;;14.65;6.65;;;;;;;;;;5012980;28;20474;-75
2022/10/15 13:27:28;;;;;;;12.55;6.95;;;;;;;;;;4998638;28;20023;-76
2022/10/15 13:29:55;;;;;;;13.30;6.72;;;;;;;;;;5067916;28;20066;-75
2022/10/15 13:32:21;;;;;;;9.10;6.20;;;;;;;;;;5073788;28;20420;-75
2022/10/15 13:34:48;;;;;;;14.30;7.00;;;;;;;;;;5075891;28;20016;-74
2022/10/15 13:37:17;;;;;;;11.35;6.22;;;;;;;;;;5059392;28;20115;-74
2022/10/15 13:39:43;;;;;;;11.07;6.63;;;;;;;;;;5055722;28;20048;-74
2022/10/15 13:42:22;;;;;;;10.63;6.38;;;;;;;;;;5077491;28;20024;-75
2022/10/15 13:44:57;;;;;;;9.32;6.03;;;;;;;;;;5080839;28;20032;-75
2022/10/15 13:47:34;;;;;;;9.23;5.85;;;;;;;;;;5078152;28;20032;-74
2022/10/15 13:50:18;;;;;;;8.95;5.95;;;;;;;;;;5056114;28;20027;-75
2022/10/15 13:53:07;;;;;;;9.95;6.35;;;;;;;;;;5074067;28;20048;-75
2022/10/15 13:55:35;;;;;;;13.73;6.15;;;;;;;;;;5076110;28;20032;-75
2022/10/15 13:58:25;;;;;;;8.85;5.68;;;;;;;;;;5073399;28;20044;-74
2022/10/15 14:00:55;;;;;;;15.25;6.07;;;;;;;;;;5012413;28;20100;-76
2022/10/15 14:03:22;;;;;;;13.52;6.28;;;;;;;;;;5008545;28;20495;-75
2022/10/15 14:05:50;;;;;;;11.35;6.05;;;;;;;;;;5012042;28;20034;-75
2022/10/15 14:08:18;;;;;;;8.65;6.00;;;;;;;;;;5012011;28;20042;-75
2022/10/15 14:10:44;;;;;;;9.45;5.45;;;;;;;;;;5012572;28;20029;-75
2022/10/15 14:13:10;;;;;;;10.75;6.00;;;;;;;;;;5005311;28;20093;-76
2022/10/15 14:15:43;;;;;;;8.35;5.65;;;;;;;;;;5008488;28;20065;-74
2022/10/15 14:18:10;;;;;;;13.48;6.05;;;;;;;;;;5012247;28;20384;-75
2022/10/15 14:20:36;;;;;;;8.77;6.07;;;;;;;;;;5012330;28;20149;-74
2022/10/15 14:23:03;;;;;;;13.55;5.82;;;;;;;;;;5011352;28;20030;-75
2022/10/15 14:25:29;;;;;;;8.18;5.68;;;;;;;;;;5005350;28;20505;-74
2022/10/15 14:27:55;;;;;;;9.65;6.13;;;;;;;;;;5012644;28;20025;-75
2022/10/15 14:30:30;;;;;;;7.35;5.32;;;;;;;;;;5012277;28;20030;-74
2022/10/15 14:32:56;;;;;;;11.05;5.72;;;;;;;;;;5012089;28;20100;-75
2022/10/15 14:35:23;;;;;;;12.48;5.82;;;;;;;;;;5003238;28;20102;-75
2022/10/15 14:37:59;;;;;;;9.13;6.20;;;;;;;;;;5042612;28;20098;-75
2022/10/15 14:40:25;;;;;;;12.43;5.78;;;;;;;;;;5108182;28;20115;-75